createdAt,value
2024-03-30T00:00:21.332Z,9.94
2024-03-30T00:03:13.575Z,9.94
2024-03-30T00:05:44.699Z,9.93
2024-03-30T00:08:16.477Z,9.94
2024-03-30T00:10:47.632Z,9.92
2024-03-30T00:13:18.873Z,9.91
2024-03-30T00:15:50.054Z,9.91
2024-03-30T00:18:21.775Z,9.86
2024-03-30T00:20:53.115Z,9.83
2024-03-30T00:23:24.690Z,9.81
2024-03-30T00:25:56.585Z,9.79
2024-03-30T00:28:28.413Z,9.79
2024-03-30T00:30:59.481Z,9.74
2024-03-30T00:33:30.854Z,9.67
2024-03-30T00:36:01.973Z,9.61
2024-03-30T00:38:33.307Z,9.56
2024-03-30T00:41:04.862Z,9.53
2024-03-30T00:43:36.082Z,9.49
2024-03-30T00:46:07.412Z,9.44
2024-03-30T00:48:38.583Z,9.40
2024-03-30T00:51:09.658Z,9.37
2024-03-30T00:53:41.183Z,9.38
2024-03-30T00:56:12.459Z,9.39
2024-03-30T00:58:43.649Z,9.37
2024-03-30T01:01:17.996Z,9.33
2024-03-30T01:03:49.367Z,9.26
2024-03-30T01:06:22.007Z,9.18
2024-03-30T01:08:54.136Z,9.09
2024-03-30T01:11:26.875Z,8.99
2024-03-30T01:13:59.361Z,8.88
2024-03-30T01:16:31.706Z,8.79
2024-03-30T01:19:04.708Z,8.72
2024-03-30T01:21:37.433Z,8.70
2024-03-30T01:24:10.622Z,8.66
2024-03-30T01:26:47.037Z,8.60
2024-03-30T01:29:22.422Z,8.51
2024-03-30T01:31:54.972Z,8.43
2024-03-30T01:34:27.671Z,8.35
2024-03-30T01:36:58.859Z,8.29
2024-03-30T01:39:30.254Z,8.22
2024-03-30T01:42:01.407Z,8.16
2024-03-30T01:44:32.743Z,8.15
2024-03-30T01:47:04.802Z,8.10
2024-03-30T01:49:36.168Z,8.03
2024-03-30T01:52:07.893Z,7.94
2024-03-30T01:54:39.511Z,7.88
2024-03-30T01:57:11.028Z,7.83
2024-03-30T01:59:42.804Z,7.77
2024-03-30T02:02:15.470Z,7.72
2024-03-30T02:04:47.946Z,7.69
2024-03-30T02:07:19.329Z,7.66
2024-03-30T02:09:50.863Z,7.64
2024-03-30T02:12:23.120Z,7.64
2024-03-30T02:14:54.445Z,7.64
2024-03-30T02:17:25.929Z,7.63
2024-03-30T02:19:58.707Z,7.62
2024-03-30T02:22:30.038Z,7.55
2024-03-30T02:25:01.118Z,7.48
2024-03-30T02:27:32.981Z,7.42
2024-03-30T02:30:05.698Z,7.37
2024-03-30T02:32:37.817Z,7.36
2024-03-30T02:35:09.574Z,7.33
2024-03-30T02:37:41.463Z,7.30
2024-03-30T02:40:13.520Z,7.34
2024-03-30T02:42:44.948Z,7.35
2024-03-30T02:45:16.765Z,7.33
2024-03-30T02:47:48.001Z,7.28
2024-03-30T02:50:19.228Z,7.20
2024-03-30T02:52:50.383Z,7.13
2024-03-30T02:55:21.700Z,7.08
2024-03-30T02:57:52.807Z,7.04
2024-03-30T03:00:24.114Z,6.96
2024-03-30T03:02:55.846Z,6.92
2024-03-30T03:05:27.337Z,6.89
2024-03-30T03:07:58.638Z,6.91
2024-03-30T03:10:29.862Z,6.95
2024-03-30T03:13:01.128Z,6.95
2024-03-30T03:15:32.687Z,6.98
2024-03-30T03:18:04.675Z,6.98
2024-03-30T03:20:36.336Z,6.99
2024-03-30T03:23:07.848Z,7.01
2024-03-30T03:25:39.330Z,6.97
2024-03-30T03:28:10.479Z,6.91
2024-03-30T03:30:42.852Z,6.86
2024-03-30T03:33:14.913Z,6.81
2024-03-30T03:35:46.100Z,6.70
2024-03-30T03:38:17.442Z,6.62
2024-03-30T03:40:48.757Z,6.55
2024-03-30T03:43:20.109Z,6.49
2024-03-30T03:45:51.582Z,6.43
2024-03-30T03:48:22.915Z,6.39
2024-03-30T03:50:54.406Z,6.36
2024-03-30T03:53:25.924Z,6.37
2024-03-30T03:55:57.024Z,6.38
2024-03-30T03:58:28.923Z,6.38
2024-03-30T04:01:04.269Z,6.40
2024-03-30T04:03:37.467Z,6.37
2024-03-30T04:06:13.584Z,6.33
2024-03-30T04:08:47.608Z,6.28
2024-03-30T04:11:18.843Z,6.25
2024-03-30T04:13:50.365Z,6.19
2024-03-30T04:16:21.581Z,6.10
2024-03-30T04:18:54.138Z,6.03
2024-03-30T04:21:27.456Z,5.97
2024-03-30T04:23:58.832Z,5.95
2024-03-30T04:26:30.040Z,5.95
2024-03-30T04:29:01.234Z,5.95
2024-03-30T04:31:32.628Z,5.95
2024-03-30T04:34:04.302Z,5.94
2024-03-30T04:36:35.210Z,5.95
2024-03-30T04:39:06.512Z,5.93
2024-03-30T04:41:37.643Z,5.92
2024-03-30T04:44:09.282Z,5.95
2024-03-30T04:46:40.644Z,5.99
2024-03-30T04:49:12.601Z,6.00
2024-03-30T04:51:44.267Z,6.02
2024-03-30T04:54:15.751Z,6.01
2024-03-30T04:56:47.183Z,6.01
2024-03-30T04:59:18.651Z,5.97
2024-03-30T05:01:49.732Z,5.90
2024-03-30T05:04:21.149Z,5.82
2024-03-30T05:06:52.367Z,5.77
2024-03-30T05:09:23.549Z,5.76
2024-03-30T05:11:54.910Z,5.80
2024-03-30T05:14:26.151Z,5.88
2024-03-30T05:16:57.462Z,5.98
2024-03-30T05:19:46.433Z,6.03
2024-03-30T05:22:17.904Z,6.09
2024-03-30T05:24:49.114Z,6.16
2024-03-30T05:27:20.465Z,6.22
2024-03-30T05:29:51.727Z,6.32
2024-03-30T05:32:22.865Z,6.45
2024-03-30T05:34:54.420Z,6.56
2024-03-30T05:37:25.582Z,6.64
2024-03-30T05:39:57.043Z,6.74
2024-03-30T05:42:28.168Z,6.80
2024-03-30T05:44:59.730Z,6.85
2024-03-30T05:47:31.124Z,6.94
2024-03-30T05:50:02.910Z,7.04
2024-03-30T05:52:34.028Z,7.15
2024-03-30T05:55:06.165Z,7.27
2024-03-30T05:57:37.321Z,7.36
2024-03-30T06:00:12.111Z,7.36
2024-03-30T06:02:47.049Z,7.36
2024-03-30T06:05:18.596Z,7.37
2024-03-30T06:07:49.848Z,7.41
2024-03-30T06:10:21.070Z,7.51
2024-03-30T06:12:52.468Z,7.60
2024-03-30T06:15:23.648Z,7.70
2024-03-30T06:17:54.986Z,7.80
2024-03-30T06:20:26.385Z,7.92
2024-03-30T06:22:57.570Z,8.12
2024-03-30T06:25:29.085Z,8.28
2024-03-30T06:28:00.367Z,8.43
2024-03-30T06:30:31.470Z,8.64
2024-03-30T06:33:02.806Z,8.83
2024-03-30T06:35:36.017Z,8.96
2024-03-30T06:38:07.542Z,9.14
2024-03-30T06:40:56.595Z,9.34
2024-03-30T06:43:47.574Z,9.59
2024-03-30T06:46:20.577Z,9.88
2024-03-30T06:48:51.711Z,10.12
2024-03-30T06:51:23.470Z,10.44
2024-03-30T06:53:54.681Z,10.77
2024-03-30T06:56:26.004Z,11.12
2024-03-30T06:58:57.588Z,11.38
2024-03-30T07:01:28.962Z,11.65
2024-03-30T07:04:00.687Z,11.87
2024-03-30T07:06:31.986Z,12.13
2024-03-30T07:09:03.230Z,12.38
2024-03-30T07:11:34.544Z,12.59
2024-03-30T07:14:06.092Z,12.76
2024-03-30T07:16:37.326Z,12.91
2024-03-30T07:19:08.631Z,13.05
2024-03-30T07:21:40.148Z,13.16
2024-03-30T07:24:11.362Z,13.34
2024-03-30T07:26:42.846Z,13.52
2024-03-30T07:29:14.261Z,13.67
2024-03-30T07:31:46.867Z,13.79
2024-03-30T07:34:18.332Z,13.87
2024-03-30T07:36:49.711Z,13.95
2024-03-30T07:39:21.201Z,14.04
2024-03-30T07:41:52.761Z,14.15
2024-03-30T07:44:27.332Z,14.32
2024-03-30T07:46:58.477Z,14.49
2024-03-30T07:49:29.866Z,14.70
2024-03-30T07:52:01.391Z,14.89
2024-03-30T07:54:32.810Z,15.11
2024-03-30T07:57:05.013Z,15.38
2024-03-30T07:59:36.256Z,15.64
2024-03-30T08:02:07.670Z,15.90
2024-03-30T08:04:38.809Z,16.14
2024-03-30T08:07:10.260Z,16.34
2024-03-30T08:09:41.749Z,16.54
2024-03-30T08:12:13.298Z,16.67
2024-03-30T08:14:44.580Z,16.78
2024-03-30T08:17:15.878Z,16.96
2024-03-30T08:19:47.247Z,17.12
2024-03-30T08:22:19.813Z,17.28
2024-03-30T08:24:51.260Z,17.41
2024-03-30T08:27:25.614Z,17.52
2024-03-30T08:29:58.803Z,17.59
2024-03-30T08:32:30.639Z,17.62
2024-03-30T08:35:02.141Z,17.66
2024-03-30T08:37:33.265Z,17.70
2024-03-30T08:40:04.971Z,17.76
2024-03-30T08:42:36.040Z,17.85
2024-03-30T08:45:08.415Z,17.91
2024-03-30T08:47:39.644Z,17.95
2024-03-30T08:50:11.309Z,17.99
2024-03-30T08:52:42.484Z,18.05
2024-03-30T08:55:13.896Z,18.11
2024-03-30T08:57:45.155Z,18.07
2024-03-30T09:00:17.068Z,18.03
2024-03-30T09:02:48.154Z,18.18
2024-03-30T09:05:19.612Z,18.32
2024-03-30T09:07:51.568Z,18.48
2024-03-30T09:10:23.138Z,18.61
2024-03-30T09:12:54.511Z,18.74
2024-03-30T09:15:26.650Z,18.87
2024-03-30T09:17:57.806Z,18.98
2024-03-30T09:20:29.159Z,19.11
2024-03-30T09:23:00.498Z,19.24
2024-03-30T09:25:32.045Z,19.35
2024-03-30T09:28:03.628Z,19.42
2024-03-30T09:30:34.847Z,19.56
2024-03-30T09:33:06.818Z,19.70
2024-03-30T09:35:41.662Z,19.86
2024-03-30T09:38:12.758Z,19.98
2024-03-30T09:40:49.998Z,20.08
2024-03-30T09:43:21.548Z,20.17
2024-03-30T09:45:53.480Z,20.30
2024-03-30T09:48:26.133Z,20.42
2024-03-30T09:50:58.588Z,20.48
2024-03-30T09:53:31.122Z,20.56
2024-03-30T09:56:04.889Z,20.68
2024-03-30T09:58:37.029Z,20.83
2024-03-30T10:01:10.635Z,20.95
2024-03-30T10:03:41.781Z,21.02
2024-03-30T10:06:18.320Z,21.15
2024-03-30T10:08:54.712Z,21.32
2024-03-30T10:11:30.416Z,21.46
2024-03-30T10:14:10.360Z,21.60
2024-03-30T10:16:41.719Z,21.72
2024-03-30T10:19:15.443Z,21.80
2024-03-30T10:21:47.663Z,21.91
2024-03-30T10:24:19.358Z,22.01
2024-03-30T10:26:51.547Z,22.05
2024-03-30T10:29:22.890Z,22.05
2024-03-30T10:31:54.773Z,22.08
2024-03-30T10:34:28.185Z,22.20
2024-03-30T10:37:01.336Z,22.25
2024-03-30T10:39:33.744Z,22.35
2024-03-30T10:42:04.930Z,22.47
2024-03-30T10:44:36.254Z,22.54
2024-03-30T10:47:08.511Z,22.54
2024-03-30T10:49:39.722Z,22.49
2024-03-30T10:52:14.447Z,22.47
2024-03-30T10:54:46.910Z,22.49
2024-03-30T10:57:19.230Z,22.63
2024-03-30T10:59:52.217Z,22.76
2024-03-30T11:02:25.090Z,22.85
2024-03-30T11:04:59.102Z,22.88
2024-03-30T11:07:30.748Z,22.89
2024-03-30T11:10:03.454Z,22.97
2024-03-30T11:12:35.391Z,23.02
2024-03-30T11:15:07.743Z,23.13
2024-03-30T11:17:44.325Z,23.15
2024-03-30T11:20:17.273Z,23.21
2024-03-30T11:22:54.771Z,23.32
2024-03-30T11:25:31.484Z,23.36
2024-03-30T11:28:08.785Z,23.45
2024-03-30T11:30:53.136Z,23.49
2024-03-30T11:33:31.920Z,23.57
2024-03-30T11:36:07.643Z,23.66
2024-03-30T11:38:41.551Z,23.69
2024-03-30T11:41:14.818Z,23.67
2024-03-30T11:43:54.391Z,23.70
2024-03-30T11:46:28.413Z,23.74
2024-03-30T11:49:00.238Z,23.77
2024-03-30T11:51:32.466Z,23.81
2024-03-30T11:54:19.007Z,23.85
2024-03-30T11:57:16.373Z,23.92
2024-03-30T11:59:55.194Z,23.96
2024-03-30T12:02:30.847Z,24.01
2024-03-30T12:05:06.815Z,24.01
2024-03-30T12:07:39.409Z,24.04
2024-03-30T12:10:12.140Z,24.04
2024-03-30T12:12:43.341Z,24.10
2024-03-30T12:15:16.350Z,24.14
2024-03-30T12:17:47.734Z,24.17
2024-03-30T12:20:20.412Z,24.11
2024-03-30T12:22:52.000Z,24.09
2024-03-30T12:25:25.690Z,24.09
2024-03-30T12:27:58.682Z,24.14
2024-03-30T12:30:30.539Z,24.22
2024-03-30T12:33:02.379Z,24.31
2024-03-30T12:35:33.615Z,24.39
2024-03-30T12:38:06.146Z,24.45
2024-03-30T12:40:38.118Z,24.54
2024-03-30T12:43:09.421Z,24.53
2024-03-30T12:45:41.108Z,24.48
2024-03-30T12:48:12.747Z,24.47
2024-03-30T12:50:44.305Z,24.55
2024-03-30T12:53:16.050Z,24.61
2024-03-30T12:55:47.218Z,24.68
2024-03-30T12:58:19.048Z,24.76
2024-03-30T13:00:50.416Z,24.76
2024-03-30T13:03:22.282Z,24.70
2024-03-30T13:05:53.690Z,24.76
2024-03-30T13:08:25.370Z,24.79
2024-03-30T13:10:58.484Z,24.86
2024-03-30T13:13:29.657Z,24.90
2024-03-30T13:16:02.032Z,24.87
2024-03-30T13:18:33.471Z,24.86
2024-03-30T13:21:09.621Z,24.85
2024-03-30T13:23:48.033Z,24.87
2024-03-30T13:26:19.632Z,24.84
2024-03-30T13:28:51.858Z,24.82
2024-03-30T13:31:23.209Z,24.82
2024-03-30T13:33:54.432Z,24.85
2024-03-30T13:36:25.936Z,24.94
2024-03-30T13:38:57.112Z,25.00
2024-03-30T13:41:28.402Z,24.97
2024-03-30T13:43:59.469Z,24.94
2024-03-30T13:46:30.739Z,24.95
2024-03-30T13:49:04.798Z,24.99
2024-03-30T13:51:36.065Z,24.97
2024-03-30T13:54:07.610Z,24.95
2024-03-30T13:56:38.799Z,24.88
2024-03-30T13:59:09.998Z,24.86
2024-03-30T14:01:41.654Z,24.84
2024-03-30T14:04:12.998Z,24.82
2024-03-30T14:06:44.445Z,24.87
2024-03-30T14:09:16.193Z,24.87
2024-03-30T14:11:49.330Z,24.87
2024-03-30T14:14:20.384Z,24.89
2024-03-30T14:16:52.237Z,24.88
2024-03-30T14:19:23.372Z,24.85
2024-03-30T14:21:54.415Z,24.84
2024-03-30T14:24:26.267Z,24.91
2024-03-30T14:26:57.668Z,24.98
2024-03-30T14:29:29.284Z,24.98
2024-03-30T14:32:00.473Z,24.92
2024-03-30T14:34:31.623Z,24.87
2024-03-30T14:37:12.620Z,24.85
2024-03-30T14:39:46.675Z,24.79
2024-03-30T14:42:18.027Z,24.80
2024-03-30T14:44:52.308Z,24.85
2024-03-30T14:47:23.935Z,24.85
2024-03-30T14:49:55.219Z,24.89
2024-03-30T14:52:26.618Z,24.76
2024-03-30T14:54:58.117Z,24.55
2024-03-30T14:57:29.783Z,24.43
2024-03-30T15:00:01.402Z,24.25
2024-03-30T15:02:34.437Z,24.06
2024-03-30T15:05:06.631Z,24.02
2024-03-30T15:07:37.867Z,24.02
2024-03-30T15:10:09.962Z,24.00
2024-03-30T15:12:41.147Z,24.05
2024-03-30T15:15:12.308Z,24.15
2024-03-30T15:17:43.513Z,24.31
2024-03-30T15:20:15.106Z,24.42
2024-03-30T15:22:46.553Z,24.47
2024-03-30T15:25:17.728Z,24.51
2024-03-30T15:27:49.075Z,24.49
2024-03-30T15:30:38.249Z,24.47
2024-03-30T15:33:09.544Z,24.53
2024-03-30T15:35:40.890Z,24.51
2024-03-30T15:38:12.394Z,24.47
2024-03-30T15:40:43.504Z,24.41
2024-03-30T15:43:15.314Z,24.34
2024-03-30T15:45:46.801Z,24.36
2024-03-30T15:48:18.165Z,24.30
2024-03-30T15:50:57.716Z,24.18
2024-03-30T15:53:29.557Z,24.06
2024-03-30T15:56:02.967Z,23.93
2024-03-30T15:58:35.631Z,23.81
2024-03-30T16:01:08.906Z,23.70
2024-03-30T16:03:40.256Z,23.66
2024-03-30T16:06:12.161Z,23.60
2024-03-30T16:08:43.507Z,23.52
2024-03-30T16:11:14.635Z,23.53
2024-03-30T16:13:45.763Z,23.55
2024-03-30T16:16:17.762Z,23.52
2024-03-30T16:18:48.892Z,23.39
2024-03-30T16:21:20.351Z,23.26
2024-03-30T16:23:51.491Z,23.12
2024-03-30T16:26:22.679Z,22.95
2024-03-30T16:28:53.972Z,22.82
2024-03-30T16:31:37.002Z,22.74
2024-03-30T16:34:09.297Z,22.60
2024-03-30T16:36:40.561Z,22.48
2024-03-30T16:39:18.749Z,22.38
2024-03-30T16:41:52.119Z,22.27
2024-03-30T16:44:32.175Z,22.15
2024-03-30T16:47:04.063Z,22.00
2024-03-30T16:49:35.186Z,21.88
2024-03-30T16:52:07.481Z,21.75
2024-03-30T16:54:38.690Z,21.57
2024-03-30T16:57:10.433Z,21.42
2024-03-30T16:59:41.741Z,21.25
2024-03-30T17:02:13.533Z,21.05
2024-03-30T17:04:46.164Z,20.85
2024-03-30T17:07:17.375Z,20.67
2024-03-30T17:09:49.241Z,20.49
2024-03-30T17:12:20.817Z,20.31
2024-03-30T17:14:52.085Z,20.14
2024-03-30T17:17:23.271Z,19.93
2024-03-30T17:19:54.434Z,19.74
2024-03-30T17:22:25.830Z,19.57
2024-03-30T17:24:58.465Z,19.40
2024-03-30T17:27:30.749Z,19.22
2024-03-30T17:30:01.913Z,19.07
2024-03-30T17:32:33.422Z,18.91
2024-03-30T17:35:07.416Z,18.75
2024-03-30T17:37:38.693Z,18.59
2024-03-30T17:40:12.035Z,18.44
2024-03-30T17:42:43.683Z,18.29
2024-03-30T17:45:14.969Z,18.16
2024-03-30T17:47:46.499Z,18.02
2024-03-30T17:50:17.841Z,17.90
2024-03-30T17:52:51.208Z,17.78
2024-03-30T17:55:22.501Z,17.66
2024-03-30T17:57:53.662Z,17.53
2024-03-30T18:00:26.330Z,17.42
2024-03-30T18:03:01.501Z,17.31
2024-03-30T18:05:32.842Z,17.20
2024-03-30T18:08:04.378Z,17.08
2024-03-30T18:10:35.505Z,16.98
2024-03-30T18:13:08.747Z,16.90
2024-03-30T18:15:39.922Z,16.84
2024-03-30T18:18:11.025Z,16.78
2024-03-30T18:20:44.808Z,16.70
2024-03-30T18:23:18.160Z,16.62
2024-03-30T18:25:49.236Z,16.53
2024-03-30T18:28:20.775Z,16.43
2024-03-30T18:30:51.921Z,16.32
2024-03-30T18:33:24.043Z,16.23
2024-03-30T18:35:55.448Z,16.15
2024-03-30T18:38:26.589Z,16.06
2024-03-30T18:40:58.201Z,15.98
2024-03-30T18:43:29.981Z,15.89
2024-03-30T18:46:04.613Z,15.81
2024-03-30T18:48:37.080Z,15.76
2024-03-30T18:51:10.542Z,15.69
2024-03-30T18:53:41.891Z,15.63
2024-03-30T18:56:14.243Z,15.57
2024-03-30T18:58:49.511Z,15.48
2024-03-30T19:01:21.538Z,15.35
2024-03-30T19:03:56.672Z,15.24
2024-03-30T19:06:28.027Z,15.15
2024-03-30T19:08:59.377Z,15.07
2024-03-30T19:11:30.678Z,14.99
2024-03-30T19:14:01.745Z,14.91
2024-03-30T19:16:33.049Z,14.84
2024-03-30T19:19:04.483Z,14.78
2024-03-30T19:21:35.696Z,14.71
2024-03-30T19:24:08.220Z,14.62
2024-03-30T19:26:39.396Z,14.54
2024-03-30T19:29:10.564Z,14.46
2024-03-30T19:31:41.707Z,14.40
2024-03-30T19:34:14.020Z,14.34
2024-03-30T19:36:47.819Z,14.29
2024-03-30T19:39:19.048Z,14.23
2024-03-30T19:41:51.552Z,14.20
2024-03-30T19:44:23.340Z,14.14
2024-03-30T19:46:54.498Z,14.09
2024-03-30T19:49:26.031Z,14.05
2024-03-30T19:51:57.183Z,14.02
2024-03-30T19:54:28.251Z,13.97
2024-03-30T19:56:59.316Z,13.92
2024-03-30T19:59:30.699Z,13.87
2024-03-30T20:02:02.074Z,13.85
2024-03-30T20:04:33.380Z,13.80
2024-03-30T20:07:04.547Z,13.76
2024-03-30T20:09:36.504Z,13.70
2024-03-30T20:12:08.861Z,13.65
2024-03-30T20:14:40.013Z,13.59
2024-03-30T20:17:11.274Z,13.51
2024-03-30T20:19:43.104Z,13.43
2024-03-30T20:22:14.556Z,13.36
2024-03-30T20:24:47.844Z,13.30
2024-03-30T20:27:19.312Z,13.23
2024-03-30T20:29:50.754Z,13.18
2024-03-30T20:32:24.152Z,13.12
2024-03-30T20:34:55.531Z,13.10
2024-03-30T20:37:26.675Z,13.12
2024-03-30T20:39:57.894Z,13.11
2024-03-30T20:42:29.048Z,13.11
2024-03-30T20:45:01.427Z,13.10
2024-03-30T20:47:32.553Z,13.08
2024-03-30T20:50:04.008Z,13.03
2024-03-30T20:52:35.275Z,12.93
2024-03-30T20:55:07.180Z,12.89
2024-03-30T20:57:38.674Z,12.86
2024-03-30T21:00:12.572Z,12.83
2024-03-30T21:02:43.847Z,12.84
2024-03-30T21:05:18.270Z,12.84
2024-03-30T21:07:49.867Z,12.86
2024-03-30T21:10:21.346Z,12.84
2024-03-30T21:12:53.963Z,12.81
2024-03-30T21:15:27.238Z,12.76
2024-03-30T21:18:00.358Z,12.74
2024-03-30T21:20:33.316Z,12.71
2024-03-30T21:23:04.704Z,12.67
2024-03-30T21:25:35.802Z,12.64
2024-03-30T21:28:07.264Z,12.61
2024-03-30T21:30:38.447Z,12.59
2024-03-30T21:33:09.586Z,12.56
2024-03-30T21:35:40.725Z,12.52
2024-03-30T21:38:12.155Z,12.49
2024-03-30T21:40:43.527Z,12.46
2024-03-30T21:43:15.215Z,12.41
2024-03-30T21:45:55.104Z,12.36
2024-03-30T21:48:27.286Z,12.28
2024-03-30T21:50:59.662Z,12.20
2024-03-30T21:53:30.925Z,12.13
2024-03-30T21:56:02.331Z,12.07
2024-03-30T21:58:33.689Z,12.02
2024-03-30T22:01:05.365Z,11.97
2024-03-30T22:03:36.741Z,11.93
2024-03-30T22:06:08.720Z,11.90
2024-03-30T22:08:39.834Z,11.86
2024-03-30T22:11:11.282Z,11.81
2024-03-30T22:13:42.328Z,11.78
2024-03-30T22:16:13.787Z,11.73
2024-03-30T22:18:45.113Z,11.68
2024-03-30T22:21:16.576Z,11.62
2024-03-30T22:23:48.103Z,11.55
2024-03-30T22:26:19.595Z,11.49
2024-03-30T22:28:50.704Z,11.44
2024-03-30T22:31:22.062Z,11.40
2024-03-30T22:33:56.015Z,11.35
2024-03-30T22:36:27.328Z,11.31
2024-03-30T22:38:59.087Z,11.27
2024-03-30T22:41:30.337Z,11.17
2024-03-30T22:44:01.557Z,11.11
2024-03-30T22:46:32.860Z,11.04
2024-03-30T22:49:04.580Z,10.95
2024-03-30T22:51:35.716Z,10.86
2024-03-30T22:54:07.114Z,10.79
2024-03-30T22:56:38.320Z,10.73
2024-03-30T22:59:09.513Z,10.66
2024-03-30T23:01:41.950Z,10.61
2024-03-30T23:04:13.394Z,10.56
2024-03-30T23:06:44.638Z,10.53
2024-03-30T23:09:16.106Z,10.51
2024-03-30T23:11:47.272Z,10.47
2024-03-30T23:14:18.492Z,10.44
2024-03-30T23:16:50.307Z,10.42
2024-03-30T23:19:22.747Z,10.41
2024-03-30T23:21:55.907Z,10.38
2024-03-30T23:24:27.524Z,10.33
2024-03-30T23:26:58.677Z,10.28
2024-03-30T23:29:29.982Z,10.24
2024-03-30T23:32:01.242Z,10.18
2024-03-30T23:34:32.894Z,10.12
2024-03-30T23:37:04.300Z,10.07
2024-03-30T23:39:35.728Z,10.02
2024-03-30T23:42:07.545Z,9.98
2024-03-30T23:44:38.622Z,9.95
2024-03-30T23:47:09.862Z,9.93
2024-03-30T23:49:41.299Z,9.91
2024-03-30T23:52:12.457Z,9.87
2024-03-30T23:54:47.247Z,9.79
2024-03-30T23:57:18.620Z,9.74
2024-03-30T23:59:50.151Z,9.70
